In Salah, Algeria
Current Conditions -  °F | °C
As of 1:00 AM on Wednesday 26 Nov 2014 (Local Time) from DAUI Reporting Station
Clear Clear  
Wind Chill: 59°   Ceiling: Unl
Heat Index: 59°   Visibility: 6mi
Dew Point: 45°   Wind: 5mph
Humidity: 59%   Direction: 100°E
Pressure: 29.94"   Gusts: NA
Location:  27.19°N, 2.47°E
Report Text: DAUI 260000Z 10004KT CAVOK 15/07 Q1014
Loading
Personal Weather Stations






























Interactive Weather Map New forecast layout! Learn more

10-Day Weather Forecast

Advertisements
Track Severe Weather on mobile